sensor_id;sensor_type;location;lat;lon;timestamp;pressure;altitude;pressure_sealevel;temperature;humidity
54172;BME280;40076;52.354;4.970;2023-07-28T00:01:43;100444.66;;;19.93;100.00
54172;BME280;40076;52.354;4.970;2023-07-28T00:04:09;100443.84;;;19.92;100.00
54172;BME280;40076;52.354;4.970;2023-07-28T00:06:35;100441.53;;;19.91;100.00
54172;BME280;40076;52.354;4.970;2023-07-28T00:12:06;100435.25;;;19.90;100.00
54172;BME280;40076;52.354;4.970;2023-07-28T00:14:31;100439.94;;;19.86;100.00
54172;BME280;40076;52.354;4.970;2023-07-28T00:16:57;100438.00;;;19.87;100.00
54172;BME280;40076;52.354;4.970;2023-07-28T00:22:21;100445.44;;;19.86;100.00
54172;BME280;40076;52.354;4.970;2023-07-28T00:24:46;100432.88;;;19.85;100.00
54172;BME280;40076;52.354;4.970;2023-07-28T00:30:14;100436.03;;;19.87;100.00
54172;BME280;40076;52.354;4.970;2023-07-28T00:35:49;100437.59;;;19.88;100.00
54172;BME280;40076;52.354;4.970;2023-07-28T00:38:14;100431.34;;;19.88;100.00
54172;BME280;40076;52.354;4.970;2023-07-28T00:40:44;100439.94;;;19.86;100.00
54172;BME280;40076;52.354;4.970;2023-07-28T00:43:09;100438.78;;;19.87;100.00
54172;BME280;40076;52.354;4.970;2023-07-28T00:48:37;100440.34;;;19.88;100.00
54172;BME280;40076;52.354;4.970;2023-07-28T00:51:03;100446.59;;;19.85;100.00
54172;BME280;40076;52.354;4.970;2023-07-28T00:53:28;100441.13;;;19.85;100.00
54172;BME280;40076;52.354;4.970;2023-07-28T00:55:54;100439.94;;;19.86;100.00
54172;BME280;40076;52.354;4.970;2023-07-28T00:58:19;100447.00;;;19.87;100.00
54172;BME280;40076;52.354;4.970;2023-07-28T01:00:46;100433.28;;;19.87;100.00
54172;BME280;40076;52.354;4.970;2023-07-28T01:03:12;100449.75;;;19.87;100.00
54172;BME280;40076;52.354;4.970;2023-07-28T01:08:19;100439.19;;;19.89;100.00
54172;BME280;40076;52.354;4.970;2023-07-28T01:10:48;100445.84;;;19.88;100.00
54172;BME280;40076;52.354;4.970;2023-07-28T01:13:13;100450.16;;;19.89;100.00
54172;BME280;40076;52.354;4.970;2023-07-28T01:15:38;100450.16;;;19.89;100.00
54172;BME280;40076;52.354;4.970;2023-07-28T01:18:04;100445.03;;;19.88;100.00
54172;BME280;40076;52.354;4.970;2023-07-28T01:20:30;100439.94;;;19.86;100.00
54172;BME280;40076;52.354;4.970;2023-07-28T01:23:08;100440.72;;;19.87;100.00
54172;BME280;40076;52.354;4.970;2023-07-28T01:28:37;100454.81;;;19.85;100.00
54172;BME280;40076;52.354;4.970;2023-07-28T01:31:02;100458.75;;;19.88;100.00
54172;BME280;40076;52.354;4.970;2023-07-28T01:33:28;100455.63;;;19.86;100.00
54172;BME280;40076;52.354;4.970;2023-07-28T01:35:53;100459.53;;;19.88;100.00
54172;BME280;40076;52.354;4.970;2023-07-28T01:38:19;100450.53;;;19.88;100.00
54172;BME280;40076;52.354;4.970;2023-07-28T01:40:44;100452.09;;;19.89;100.00
54172;BME280;40076;52.354;4.970;2023-07-28T01:46:08;100454.06;;;19.88;100.00
54172;BME280;40076;52.354;4.970;2023-07-28T01:48:36;100458.75;;;19.88;100.00
54172;BME280;40076;52.354;4.970;2023-07-28T01:51:01;100460.72;;;19.87;100.00
54172;BME280;40076;52.354;4.970;2023-07-28T01:53:26;100459.94;;;19.87;100.00
54172;BME280;40076;52.354;4.970;2023-07-28T01:55:51;100463.44;;;19.87;100.00
54172;BME280;40076;52.354;4.970;2023-07-28T01:58:17;100465.41;;;19.87;100.00
54172;BME280;40076;52.354;4.970;2023-07-28T02:00:42;100467.78;;;19.88;100.00
54172;BME280;40076;52.354;4.970;2023-07-28T02:03:07;100466.19;;;19.87;100.00
54172;BME280;40076;52.354;4.970;2023-07-28T02:05:32;100460.31;;;19.89;100.00
54172;BME280;40076;52.354;4.970;2023-07-28T02:07:58;100459.16;;;19.90;100.00
54172;BME280;40076;52.354;4.970;2023-07-28T02:10:23;100452.09;;;19.89;100.00
54172;BME280;40076;52.354;4.970;2023-07-28T02:15:18;100447.00;;;19.91;100.00
54172;BME280;40076;52.354;4.970;2023-07-28T02:17:43;100450.94;;;19.90;100.00
54172;BME280;40076;52.354;4.970;2023-07-28T02:20:09;100446.59;;;19.92;100.00
54172;BME280;40076;52.354;4.970;2023-07-28T02:22:38;100445.03;;;19.91;100.00
54172;BME280;40076;52.354;4.970;2023-07-28T02:28:08;100455.63;;;19.93;100.00
54172;BME280;40076;52.354;4.970;2023-07-28T02:30:33;100462.28;;;19.92;100.00
54172;BME280;40076;52.354;4.970;2023-07-28T02:33:07;100465.00;;;19.92;100.00
54172;BME280;40076;52.354;4.970;2023-07-28T02:35:32;100452.88;;;19.93;100.00
54172;BME280;40076;52.354;4.970;2023-07-28T02:37:57;100459.94;;;19.94;100.00
54172;BME280;40076;52.354;4.970;2023-07-28T02:40:23;100454.44;;;19.94;100.00
54172;BME280;40076;52.354;4.970;2023-07-28T02:42:48;100457.56;;;19.92;100.00
54172;BME280;40076;52.354;4.970;2023-07-28T02:45:13;100465.41;;;19.94;100.00
54172;BME280;40076;52.354;4.970;2023-07-28T02:47:39;100457.19;;;19.94;100.00
54172;BME280;40076;52.354;4.970;2023-07-28T02:50:04;100462.66;;;19.94;100.00
54172;BME280;40076;52.354;4.970;2023-07-28T02:52:29;100456.00;;;19.95;100.00
54172;BME280;40076;52.354;4.970;2023-07-28T02:54:55;100461.50;;;19.95;100.00
54172;BME280;40076;52.354;4.970;2023-07-28T02:57:20;100459.53;;;19.95;100.00
54172;BME280;40076;52.354;4.970;2023-07-28T02:59:46;100470.91;;;19.97;100.00
54172;BME280;40076;52.354;4.970;2023-07-28T03:02:11;100467.00;;;19.98;100.00
54172;BME280;40076;52.354;4.970;2023-07-28T03:07:40;100478.34;;;19.93;100.00
54172;BME280;40076;52.354;4.970;2023-07-28T03:13:08;100477.97;;;19.95;100.00
54172;BME280;40076;52.354;4.970;2023-07-28T03:15:33;100475.22;;;19.95;100.00
54172;BME280;40076;52.354;4.970;2023-07-28T03:17:58;100481.88;;;19.97;100.00
54172;BME280;40076;52.354;4.970;2023-07-28T03:20:24;100474.44;;;19.98;100.00
54172;BME280;40076;52.354;4.970;2023-07-28T03:22:49;100479.13;;;19.97;100.00
54172;BME280;40076;52.354;4.970;2023-07-28T03:25:14;100478.34;;;19.97;100.00
54172;BME280;40076;52.354;4.970;2023-07-28T03:30:31;100477.19;;;19.98;100.00
54172;BME280;40076;52.354;4.970;2023-07-28T03:32:56;100487.75;;;19.99;100.00
54172;BME280;40076;52.354;4.970;2023-07-28T03:35:29;100485.00;;;19.99;100.00
54172;BME280;40076;52.354;4.970;2023-07-28T03:37:54;100485.00;;;19.99;100.00
54172;BME280;40076;52.354;4.970;2023-07-28T03:40:19;100480.72;;;19.98;100.00
54172;BME280;40076;52.354;4.970;2023-07-28T03:42:45;100492.44;;;19.99;100.00
54172;BME280;40076;52.354;4.970;2023-07-28T03:45:10;100501.09;;;19.97;100.00
54172;BME280;40076;52.354;4.970;2023-07-28T03:47:35;100502.66;;;19.98;100.00
54172;BME280;40076;52.354;4.970;2023-07-28T03:50:01;100500.69;;;19.95;100.00
54172;BME280;40076;52.354;4.970;2023-07-28T03:52:27;100502.66;;;19.98;100.00
54172;BME280;40076;52.354;4.970;2023-07-28T03:54:52;100499.91;;;19.98;100.00
54172;BME280;40076;52.354;4.970;2023-07-28T03:57:17;100500.66;;;19.99;100.00
54172;BME280;40076;52.354;4.970;2023-07-28T03:59:42;100502.25;;;20.00;100.00
54172;BME280;40076;52.354;4.970;2023-07-28T04:02:08;100509.69;;;19.99;100.00
54172;BME280;40076;52.354;4.970;2023-07-28T04:04:34;100505.41;;;19.98;100.00
54172;BME280;40076;52.354;4.970;2023-07-28T04:06:59;100506.94;;;19.99;100.00
54172;BME280;40076;52.354;4.970;2023-07-28T04:09:25;100506.94;;;19.99;100.00
54172;BME280;40076;52.354;4.970;2023-07-28T04:11:50;100505.78;;;20.00;100.00
54172;BME280;40076;52.354;4.970;2023-07-28T04:14:28;100508.50;;;20.00;100.00
54172;BME280;40076;52.354;4.970;2023-07-28T04:16:53;100513.22;;;20.00;100.00
54172;BME280;40076;52.354;4.970;2023-07-28T04:19:18;100510.47;;;20.00;100.00
54172;BME280;40076;52.354;4.970;2023-07-28T04:21:43;100510.47;;;20.00;100.00
54172;BME280;40076;52.354;4.970;2023-07-28T04:24:09;100511.25;;;20.00;100.00
54172;BME280;40076;52.354;4.970;2023-07-28T04:26:36;100508.50;;;20.00;100.00
54172;BME280;40076;52.354;4.970;2023-07-28T04:29:02;100508.50;;;20.00;100.00
54172;BME280;40076;52.354;4.970;2023-07-28T04:31:27;100513.59;;;20.02;100.00
54172;BME280;40076;52.354;4.970;2023-07-28T04:33:52;100510.09;;;20.01;100.00
54172;BME280;40076;52.354;4.970;2023-07-28T04:36:17;100511.28;;;20.04;100.00
54172;BME280;40076;52.354;4.970;2023-07-28T04:38:43;100517.13;;;20.02;100.00
54172;BME280;40076;52.354;4.970;2023-07-28T04:41:08;100512.44;;;20.03;100.00
54172;BME280;40076;52.354;4.970;2023-07-28T04:43:33;100512.44;;;20.03;100.00
54172;BME280;40076;52.354;4.970;2023-07-28T04:45:58;100508.53;;;20.04;100.00
54172;BME280;40076;52.354;4.970;2023-07-28T04:48:24;100509.31;;;20.04;100.00
54172;BME280;40076;52.354;4.970;2023-07-28T04:50:49;100507.75;;;20.03;100.00
54172;BME280;40076;52.354;4.970;2023-07-28T04:53:14;100511.28;;;20.04;100.00
54172;BME280;40076;52.354;4.970;2023-07-28T04:55:39;100512.06;;;20.04;100.00
54172;BME280;40076;52.354;4.970;2023-07-28T04:58:05;100514.41;;;20.06;100.00
54172;BME280;40076;52.354;4.970;2023-07-28T05:00:30;100509.31;;;20.08;100.00
54172;BME280;40076;52.354;4.970;2023-07-28T05:02:55;100508.50;;;20.08;100.00
54172;BME280;40076;52.354;4.970;2023-07-28T05:05:20;100512.81;;;20.09;100.00
54172;BME280;40076;52.354;4.970;2023-07-28T05:07:46;100517.53;;;20.08;100.00
54172;BME280;40076;52.354;4.970;2023-07-28T05:10:11;100519.09;;;20.09;100.00
54172;BME280;40076;52.354;4.970;2023-07-28T05:12:36;100520.28;;;20.08;100.00
54172;BME280;40076;52.354;4.970;2023-07-28T05:15:01;100516.75;;;20.08;100.00
54172;BME280;40076;52.354;4.970;2023-07-28T05:20:31;100523.41;;;20.10;100.00
54172;BME280;40076;52.354;4.970;2023-07-28T05:22:56;100525.78;;;20.12;100.00
54172;BME280;40076;52.354;4.970;2023-07-28T05:25:21;100524.59;;;20.13;100.00
54172;BME280;40076;52.354;4.970;2023-07-28T05:27:47;100527.34;;;20.13;100.00
54172;BME280;40076;52.354;4.970;2023-07-28T05:30:12;100525.75;;;20.15;100.00
54172;BME280;40076;52.354;4.970;2023-07-28T05:32:37;100532.03;;;20.16;100.00
54172;BME280;40076;52.354;4.970;2023-07-28T05:35:03;100532.81;;;20.16;100.00
54172;BME280;40076;52.354;4.970;2023-07-28T05:37:40;100539.88;;;20.17;100.00
54172;BME280;40076;52.354;4.970;2023-07-28T05:40:05;100533.59;;;20.17;100.00
54172;BME280;40076;52.354;4.970;2023-07-28T05:42:31;100536.75;;;20.19;100.00
54172;BME280;40076;52.354;4.970;2023-07-28T05:44:56;100535.94;;;20.15;100.00
54172;BME280;40076;52.354;4.970;2023-07-28T05:47:21;100537.94;;;20.18;100.00
54172;BME280;40076;52.354;4.970;2023-07-28T05:52:38;100537.94;;;20.18;100.00
54172;BME280;40076;52.354;4.970;2023-07-28T05:55:04;100540.66;;;20.18;100.00
54172;BME280;40076;52.354;4.970;2023-07-28T06:00:32;100550.09;;;20.20;100.00
54172;BME280;40076;52.354;4.970;2023-07-28T06:02:57;100547.72;;;20.22;100.00
54172;BME280;40076;52.354;4.970;2023-07-28T06:05:22;100555.94;;;20.22;100.00
54172;BME280;40076;52.354;4.970;2023-07-28T06:07:47;100548.50;;;20.23;100.00
54172;BME280;40076;52.354;4.970;2023-07-28T06:10:13;100555.56;;;20.24;100.00
54172;BME280;40076;52.354;4.970;2023-07-28T06:15:41;100555.56;;;20.24;100.00
54172;BME280;40076;52.354;4.970;2023-07-28T06:21:09;100569.66;;;20.22;100.00
54172;BME280;40076;52.354;4.970;2023-07-28T06:23:34;100561.44;;;20.26;100.00
54172;BME280;40076;52.354;4.970;2023-07-28T06:26:00;100560.66;;;20.25;100.00
54172;BME280;40076;52.354;4.970;2023-07-28T06:28:25;100568.50;;;20.27;100.00
54172;BME280;40076;52.354;4.970;2023-07-28T06:30:57;100566.56;;;20.27;100.00
54172;BME280;40076;52.354;4.970;2023-07-28T06:33:23;100567.72;;;20.30;100.00
54172;BME280;40076;52.354;4.970;2023-07-28T06:35:49;100577.91;;;20.29;100.00
54172;BME280;40076;52.354;4.970;2023-07-28T06:38:14;100581.44;;;20.30;100.00
54172;BME280;40076;52.354;4.970;2023-07-28T06:40:40;100581.84;;;20.28;100.00
54172;BME280;40076;52.354;4.970;2023-07-28T06:43:05;100589.66;;;20.26;100.00
54172;BME280;40076;52.354;4.970;2023-07-28T06:45:32;100590.84;;;20.29;100.00
54172;BME280;40076;52.354;4.970;2023-07-28T06:47:57;100588.88;;;20.29;100.00
54172;BME280;40076;52.354;4.970;2023-07-28T06:50:23;100598.69;;;20.30;100.00
54172;BME280;40076;52.354;4.970;2023-07-28T06:52:48;100597.88;;;20.30;100.00
54172;BME280;40076;52.354;4.970;2023-07-28T06:55:15;100605.75;;;20.28;100.00
54172;BME280;40076;52.354;4.970;2023-07-28T06:57:40;100605.34;;;20.29;100.00
54172;BME280;40076;52.354;4.970;2023-07-28T07:00:06;100603.78;;;20.28;100.00
54172;BME280;40076;52.354;4.970;2023-07-28T07:02:37;100606.13;;;20.26;100.00
54172;BME280;40076;52.354;4.970;2023-07-28T07:05:03;100615.56;;;20.29;100.00
54172;BME280;40076;52.354;4.970;2023-07-28T07:07:28;100610.06;;;20.29;100.00
54172;BME280;40076;52.354;4.970;2023-07-28T07:09:53;100621.03;;;20.29;100.00
54172;BME280;40076;52.354;4.970;2023-07-28T07:12:19;100617.09;;;20.30;100.00
54172;BME280;40076;52.354;4.970;2023-07-28T07:14:46;100622.22;;;20.28;100.00
54172;BME280;40076;52.354;4.970;2023-07-28T07:17:11;100622.22;;;20.28;100.00
54172;BME280;40076;52.354;4.970;2023-07-28T07:19:36;100628.47;;;20.28;100.00
54172;BME280;40076;52.354;4.970;2023-07-28T07:22:01;100624.53;;;20.29;100.00
54172;BME280;40076;52.354;4.970;2023-07-28T07:24:27;100623.38;;;20.30;100.00
54172;BME280;40076;52.354;4.970;2023-07-28T07:26:53;100628.47;;;20.32;100.00
54172;BME280;40076;52.354;4.970;2023-07-28T07:29:19;100628.47;;;20.32;100.00
54172;BME280;40076;52.354;4.970;2023-07-28T07:31:44;100630.47;;;20.35;100.00
54172;BME280;40076;52.354;4.970;2023-07-28T07:34:09;100635.19;;;20.34;100.00
54172;BME280;40076;52.354;4.970;2023-07-28T07:36:34;100638.28;;;20.33;100.00
54172;BME280;40076;52.354;4.970;2023-07-28T07:38:59;100629.31;;;20.36;100.00
54172;BME280;40076;52.354;4.970;2023-07-28T07:41:25;100640.66;;;20.38;100.00
54172;BME280;40076;52.354;4.970;2023-07-28T07:43:52;100637.13;;;20.37;100.00
54172;BME280;40076;52.354;4.970;2023-07-28T07:46:17;100649.69;;;20.38;100.00
54172;BME280;40076;52.354;4.970;2023-07-28T07:48:44;100646.16;;;20.41;100.00
54172;BME280;40076;52.354;4.970;2023-07-28T07:51:09;100654.03;;;20.43;100.00
54172;BME280;40076;52.354;4.970;2023-07-28T07:53:35;100655.59;;;20.44;100.00
54172;BME280;40076;52.354;4.970;2023-07-28T07:56:01;100657.94;;;20.46;100.00
54172;BME280;40076;52.354;4.970;2023-07-28T07:58:40;100657.53;;;20.47;100.00
54172;BME280;40076;52.354;4.970;2023-07-28T08:01:05;100662.25;;;20.50;100.00
54172;BME280;40076;52.354;4.970;2023-07-28T08:06:33;100669.31;;;20.51;100.00
54172;BME280;40076;52.354;4.970;2023-07-28T08:08:59;100674.81;;;20.51;100.00
54172;BME280;40076;52.354;4.970;2023-07-28T08:11:24;100666.59;;;20.51;100.00
54172;BME280;40076;52.354;4.970;2023-07-28T08:13:49;100668.13;;;20.52;100.00
54172;BME280;40076;52.354;4.970;2023-07-28T08:16:15;100672.44;;;20.53;100.00
54172;BME280;40076;52.354;4.970;2023-07-28T08:21:10;100680.69;;;20.57;100.00
54172;BME280;40076;52.354;4.970;2023-07-28T08:23:35;100678.75;;;20.57;100.00
54172;BME280;40076;52.354;4.970;2023-07-28T08:26:01;100680.31;;;20.58;100.00
54172;BME280;40076;52.354;4.970;2023-07-28T08:28:26;100670.91;;;20.59;100.00
54172;BME280;40076;52.354;4.970;2023-07-28T08:30:53;100684.63;;;20.63;100.00
54172;BME280;40076;52.354;4.970;2023-07-28T08:33:20;100681.09;;;20.62;100.00
54172;BME280;40076;52.354;4.970;2023-07-28T08:35:45;100686.19;;;20.67;100.00
54172;BME280;40076;52.354;4.970;2023-07-28T08:38:10;100683.84;;;20.69;100.00
54172;BME280;40076;52.354;4.970;2023-07-28T08:40:37;100691.69;;;20.71;100.00
54172;BME280;40076;52.354;4.970;2023-07-28T08:43:02;100686.19;;;20.71;100.00
54172;BME280;40076;52.354;4.970;2023-07-28T08:47:56;100694.84;;;20.73;100.00
54172;BME280;40076;52.354;4.970;2023-07-28T08:50:22;100705.44;;;20.74;100.00
54172;BME280;40076;52.354;4.970;2023-07-28T08:52:48;100689.75;;;20.75;100.00
54172;BME280;40076;52.354;4.970;2023-07-28T08:55:15;100701.50;;;20.79;100.00
54172;BME280;40076;52.354;4.970;2023-07-28T08:57:40;100700.34;;;20.80;100.00
54172;BME280;40076;52.354;4.970;2023-07-28T09:00:06;100701.53;;;20.83;100.00
54172;BME280;40076;52.354;4.970;2023-07-28T09:02:31;100699.16;;;20.85;100.00
54172;BME280;40076;52.354;4.970;2023-07-28T09:04:57;100708.59;;;20.87;100.00
54172;BME280;40076;52.354;4.970;2023-07-28T09:07:22;100704.28;;;20.90;100.00
54172;BME280;40076;52.354;4.970;2023-07-28T09:09:47;100704.66;;;20.92;100.00
54172;BME280;40076;52.354;4.970;2023-07-28T09:12:13;100705.81;;;20.91;100.00
54172;BME280;40076;52.354;4.970;2023-07-28T09:14:38;100713.28;;;20.94;100.00
54172;BME280;40076;52.354;4.970;2023-07-28T09:17:10;100711.34;;;20.94;100.00
54172;BME280;40076;52.354;4.970;2023-07-28T09:19:52;100713.69;;;20.96;100.00
54172;BME280;40076;52.354;4.970;2023-07-28T09:22:23;100707.03;;;20.97;100.00
54172;BME280;40076;52.354;4.970;2023-07-28T09:24:49;100706.63;;;21.02;100.00
54172;BME280;40076;52.354;4.970;2023-07-28T09:29:50;100716.84;;;21.12;100.00
54172;BME280;40076;52.354;4.970;2023-07-28T09:32:15;100718.03;;;21.18;100.00
54172;BME280;40076;52.354;4.970;2023-07-28T09:34:41;100714.88;;;21.23;100.00
54172;BME280;40076;52.354;4.970;2023-07-28T09:37:06;100709.38;;;21.30;100.00
54172;BME280;40076;52.354;4.970;2023-07-28T09:39:34;100717.63;;;21.37;100.00
54172;BME280;40076;52.354;4.970;2023-07-28T09:42:01;100718.81;;;21.40;100.00
54172;BME280;40076;52.354;4.970;2023-07-28T09:44:26;100720.00;;;21.42;100.00
54172;BME280;40076;52.354;4.970;2023-07-28T09:46:53;100718.41;;;21.48;100.00
54172;BME280;40076;52.354;4.970;2023-07-28T09:52:17;100716.44;;;21.56;100.00
54172;BME280;40076;52.354;4.970;2023-07-28T09:54:43;100716.00;;;21.61;100.00
54172;BME280;40076;52.354;4.970;2023-07-28T09:57:11;100720.34;;;21.66;100.00
54172;BME280;40076;52.354;4.970;2023-07-28T09:59:38;100716.00;;;21.68;100.00
54172;BME280;40076;52.354;4.970;2023-07-28T10:02:04;100725.41;;;21.71;100.00
54172;BME280;40076;52.354;4.970;2023-07-28T10:04:30;100719.91;;;21.74;100.00
54172;BME280;40076;52.354;4.970;2023-07-28T10:09:59;100716.72;;;21.86;100.00
54172;BME280;40076;52.354;4.970;2023-07-28T10:15:29;100718.72;;;21.97;100.00
54172;BME280;40076;52.354;4.970;2023-07-28T10:17:55;100722.59;;;21.99;100.00
54172;BME280;40076;52.354;4.970;2023-07-28T10:20:30;100725.34;;;22.03;100.00
54172;BME280;40076;52.354;4.970;2023-07-28T10:23:11;100718.69;;;22.04;100.00
54172;BME280;40076;52.354;4.970;2023-07-28T10:25:37;100724.50;;;22.13;100.00
54172;BME280;40076;52.354;4.970;2023-07-28T10:28:03;100722.53;;;22.17;100.00
54172;BME280;40076;52.354;4.970;2023-07-28T10:30:30;100726.06;;;22.21;100.00
54172;BME280;40076;52.354;4.970;2023-07-28T10:32:59;100733.13;;;22.25;100.00
54172;BME280;40076;52.354;4.970;2023-07-28T10:35:27;100729.19;;;22.26;100.00
54172;BME280;40076;52.354;4.970;2023-07-28T10:37:54;100726.44;;;22.26;100.00
54172;BME280;40076;52.354;4.970;2023-07-28T10:40:32;100731.16;;;22.26;100.00
54172;BME280;40076;52.354;4.970;2023-07-28T10:42:59;100733.09;;;22.29;100.00
54172;BME280;40076;52.354;4.970;2023-07-28T10:45:25;100737.41;;;22.30;100.00
54172;BME280;40076;52.354;4.970;2023-07-28T10:47:52;100739.78;;;22.31;100.00
54172;BME280;40076;52.354;4.970;2023-07-28T10:50:17;100738.19;;;22.34;100.00
54172;BME280;40076;52.354;4.970;2023-07-28T10:52:43;100737.78;;;22.36;100.00
54172;BME280;40076;52.354;4.970;2023-07-28T10:55:13;100740.91;;;22.41;100.00
54172;BME280;40076;52.354;4.970;2023-07-28T10:57:40;100740.88;;;22.45;100.00
54172;BME280;40076;52.354;4.970;2023-07-28T11:00:05;100734.97;;;22.50;100.00
54172;BME280;40076;52.354;4.970;2023-07-28T11:02:32;100737.72;;;22.50;100.00
54172;BME280;40076;52.354;4.970;2023-07-28T11:05:00;100735.34;;;22.52;100.00
54172;BME280;40076;52.354;4.970;2023-07-28T11:07:30;100743.59;;;22.52;100.00
54172;BME280;40076;52.354;4.970;2023-07-28T11:09:55;100747.91;;;22.53;100.00
54172;BME280;40076;52.354;4.970;2023-07-28T11:12:20;100745.94;;;22.53;100.00
54172;BME280;40076;52.354;4.970;2023-07-28T11:14:46;100748.31;;;22.55;100.00
54172;BME280;40076;52.354;4.970;2023-07-28T11:17:11;100751.47;;;22.53;100.00
54172;BME280;40076;52.354;4.970;2023-07-28T11:19:37;100745.94;;;22.57;100.00
54172;BME280;40076;52.354;4.970;2023-07-28T11:22:02;100749.84;;;22.59;100.00
54172;BME280;40076;52.354;4.970;2023-07-28T11:24:27;100743.53;;;22.62;100.00
54172;BME280;40076;52.354;4.970;2023-07-28T11:26:52;100743.53;;;22.62;100.00
54172;BME280;40076;52.354;4.970;2023-07-28T11:29:18;100742.38;;;22.63;100.00
54172;BME280;40076;52.354;4.970;2023-07-28T11:31:43;100749.00;;;22.66;100.00
54172;BME280;40076;52.354;4.970;2023-07-28T11:34:12;100749.00;;;22.66;100.00
54172;BME280;40076;52.354;4.970;2023-07-28T11:36:38;100756.88;;;22.67;100.00
54172;BME280;40076;52.354;4.970;2023-07-28T11:39:03;100753.34;;;22.70;100.00
54172;BME280;40076;52.354;4.970;2023-07-28T11:41:30;100756.88;;;22.71;100.00
54172;BME280;40076;52.354;4.970;2023-07-28T11:43:59;100756.88;;;22.75;100.00
54172;BME280;40076;52.354;4.970;2023-07-28T11:46:33;100761.19;;;22.76;100.00
54172;BME280;40076;52.354;4.970;2023-07-28T11:49:12;100761.19;;;22.79;100.00
54172;BME280;40076;52.354;4.970;2023-07-28T11:51:39;100758.44;;;22.79;100.00
54172;BME280;40076;52.354;4.970;2023-07-28T11:54:05;100758.44;;;22.79;100.00
54172;BME280;40076;52.354;4.970;2023-07-28T11:59:28;100763.09;;;22.86;100.00
54172;BME280;40076;52.354;4.970;2023-07-28T12:02:00;100765.84;;;22.86;100.00
54172;BME280;40076;52.354;4.970;2023-07-28T12:04:29;100765.47;;;22.87;100.00
54172;BME280;40076;52.354;4.970;2023-07-28T12:07:02;100764.63;;;22.90;100.00
54172;BME280;40076;52.354;4.970;2023-07-28T12:09:28;100763.84;;;22.90;100.00
54172;BME280;40076;52.354;4.970;2023-07-28T12:11:53;100770.09;;;22.97;100.00
54172;BME280;40076;52.354;4.970;2023-07-28T12:14:32;100765.75;;;23.00;100.00
54172;BME280;40076;52.354;4.970;2023-07-28T12:16:57;100768.13;;;23.01;100.00
54172;BME280;40076;52.354;4.970;2023-07-28T12:19:22;100771.63;;;23.05;100.00
54172;BME280;40076;52.354;4.970;2023-07-28T12:21:48;100769.63;;;23.09;100.00
54172;BME280;40076;52.354;4.970;2023-07-28T12:24:13;100769.59;;;23.13;100.00
54172;BME280;40076;52.354;4.970;2023-07-28T12:26:38;100770.34;;;23.17;100.00
54172;BME280;40076;52.354;4.970;2023-07-28T12:29:03;100767.16;;;23.26;100.00
54172;BME280;40076;52.354;4.970;2023-07-28T12:31:29;100774.97;;;23.31;100.00
54172;BME280;40076;52.354;4.970;2023-07-28T12:33:54;100762.34;;;23.33;100.00
54172;BME280;40076;52.354;4.970;2023-07-28T12:36:19;100777.66;;;23.38;100.00
54172;BME280;40076;52.354;4.970;2023-07-28T12:38:44;100772.53;;;23.40;100.00
54172;BME280;40076;52.354;4.970;2023-07-28T12:41:10;100769.72;;;23.43;100.00
54172;BME280;40076;52.354;4.970;2023-07-28T12:43:35;100773.25;;;23.47;100.00
54172;BME280;40076;52.354;4.970;2023-07-28T12:46:00;100766.53;;;23.52;100.00
54172;BME280;40076;52.354;4.970;2023-07-28T12:48:25;100764.09;;;23.61;100.00
54172;BME280;40076;52.354;4.970;2023-07-28T12:51:07;100771.91;;;23.66;100.00
54172;BME280;40076;52.354;4.970;2023-07-28T12:53:32;100777.00;;;23.71;100.00
54172;BME280;40076;52.354;4.970;2023-07-28T12:55:57;100776.94;;;23.75;100.00
54172;BME280;40076;52.354;4.970;2023-07-28T12:58:23;100771.41;;;23.78;100.00
54172;BME280;40076;52.354;4.970;2023-07-28T13:00:48;100780.81;;;23.81;100.00
54172;BME280;40076;52.354;4.970;2023-07-28T13:03:14;100778.84;;;23.81;100.00
54172;BME280;40076;52.354;4.970;2023-07-28T13:05:39;100780.41;;;23.86;100.00
54172;BME280;40076;52.354;4.970;2023-07-28T13:08:16;100791.38;;;23.90;100.00
54172;BME280;40076;52.354;4.970;2023-07-28T13:10:41;100781.91;;;23.91;100.00
54172;BME280;40076;52.354;4.970;2023-07-28T13:13:07;100781.91;;;23.91;100.00
54172;BME280;40076;52.354;4.970;2023-07-28T13:15:32;100775.59;;;23.94;100.00
54172;BME280;40076;52.354;4.970;2023-07-28T13:17:57;100774.00;;;23.93;100.00
54172;BME280;40076;52.354;4.970;2023-07-28T13:20:22;100771.19;;;23.96;100.00
54172;BME280;40076;52.354;4.970;2023-07-28T13:22:48;100775.91;;;23.99;100.00
54172;BME280;40076;52.354;4.970;2023-07-28T13:25:13;100771.56;;;23.98;100.00
54172;BME280;40076;52.354;4.970;2023-07-28T13:27:38;100769.97;;;24.01;100.00
54172;BME280;40076;52.354;4.970;2023-07-28T13:30:03;100773.13;;;24.03;100.00
54172;BME280;40076;52.354;4.970;2023-07-28T13:32:39;100777.41;;;24.04;100.00
54172;BME280;40076;52.354;4.970;2023-07-28T13:35:04;100784.88;;;24.07;100.00
54172;BME280;40076;52.354;4.970;2023-07-28T13:37:32;100778.59;;;24.06;100.00
54172;BME280;40076;52.354;4.970;2023-07-28T13:39:57;100775.88;;;24.03;99.62
54172;BME280;40076;52.354;4.970;2023-07-28T13:42:23;100765.66;;;24.00;100.00
54172;BME280;40076;52.354;4.970;2023-07-28T13:44:48;100774.72;;;24.00;99.23
54172;BME280;40076;52.354;4.970;2023-07-28T13:47:13;100765.25;;;24.01;99.41
54172;BME280;40076;52.354;4.970;2023-07-28T13:49:38;100769.56;;;24.02;99.61
54172;BME280;40076;52.354;4.970;2023-07-28T13:52:04;100770.31;;;24.06;99.69